createdAt,value
2023-09-17T00:00:08.138Z,100.00
2023-09-17T00:03:11.767Z,100.00
2023-09-17T00:06:14.601Z,99.73
2023-09-17T00:09:19.022Z,99.71
2023-09-17T00:12:22.526Z,100.00
2023-09-17T00:15:28.581Z,100.00
2023-09-17T00:18:31.232Z,100.00
2023-09-17T00:21:33.879Z,100.00
2023-09-17T00:24:36.683Z,100.00
2023-09-17T00:27:40.543Z,100.00
2023-09-17T00:30:43.358Z,100.00
2023-09-17T00:33:46.118Z,100.00
2023-09-17T00:36:48.796Z,100.00
2023-09-17T00:39:51.737Z,100.00
2023-09-17T00:42:54.559Z,100.00
2023-09-17T00:45:57.429Z,100.00
2023-09-17T00:49:01.327Z,100.00
2023-09-17T00:52:12.858Z,100.00
2023-09-17T00:55:15.451Z,100.00
2023-09-17T00:58:18.514Z,100.00
2023-09-17T01:01:21.332Z,100.00
2023-09-17T01:04:25.012Z,100.00
2023-09-17T01:07:28.384Z,100.00
2023-09-17T01:10:31.841Z,100.00
2023-09-17T01:13:41.947Z,100.00
2023-09-17T01:16:48.872Z,100.00
2023-09-17T01:19:54.284Z,100.00
2023-09-17T01:23:03.422Z,100.00
2023-09-17T01:26:17.063Z,100.00
2023-09-17T01:29:24.881Z,100.00
2023-09-17T01:32:27.560Z,100.00
2023-09-17T01:35:32.575Z,100.00
2023-09-17T01:38:40.005Z,100.00
2023-09-17T01:41:45.973Z,100.00
2023-09-17T01:44:49.547Z,100.00
2023-09-17T01:47:52.995Z,100.00
2023-09-17T01:50:56.160Z,100.00
2023-09-17T01:53:59.665Z,100.00
2023-09-17T01:57:02.364Z,100.00
2023-09-17T02:00:15.781Z,100.00
2023-09-17T02:03:19.531Z,100.00
2023-09-17T02:06:22.011Z,100.00
2023-09-17T02:09:24.982Z,100.00
2023-09-17T02:12:27.736Z,100.00
2023-09-17T02:15:31.173Z,100.00
2023-09-17T02:18:33.702Z,100.00
2023-09-17T02:21:36.863Z,100.00
2023-09-17T02:24:39.298Z,100.00
2023-09-17T02:27:42.952Z,100.00
2023-09-17T02:30:45.420Z,100.00
2023-09-17T02:33:48.771Z,100.00
2023-09-17T02:36:51.604Z,100.00
2023-09-17T02:39:54.508Z,100.00
2023-09-17T02:42:56.897Z,100.00
2023-09-17T02:45:59.636Z,100.00
2023-09-17T02:49:02.041Z,100.00
2023-09-17T02:52:06.059Z,100.00
2023-09-17T02:55:09.584Z,100.00
2023-09-17T02:58:14.200Z,100.00
2023-09-17T03:01:19.512Z,100.00
2023-09-17T03:04:23.518Z,100.00
2023-09-17T03:07:27.577Z,100.00
2023-09-17T03:10:30.898Z,100.00
2023-09-17T03:13:33.688Z,100.00
2023-09-17T03:16:37.139Z,100.00
2023-09-17T03:19:40.217Z,100.00
2023-09-17T03:22:43.096Z,100.00
2023-09-17T03:25:45.972Z,100.00
2023-09-17T03:28:48.981Z,100.00
2023-09-17T03:31:51.661Z,100.00
2023-09-17T03:34:54.741Z,100.00
2023-09-17T03:37:57.132Z,100.00
2023-09-17T03:41:01.743Z,100.00
2023-09-17T03:44:04.726Z,100.00
2023-09-17T03:47:09.561Z,100.00
2023-09-17T03:50:16.815Z,100.00
2023-09-17T03:53:21.743Z,100.00
2023-09-17T03:56:25.997Z,100.00
2023-09-17T03:59:29.210Z,100.00
2023-09-17T04:02:32.016Z,100.00
2023-09-17T04:05:35.850Z,100.00
2023-09-17T04:08:38.635Z,100.00
2023-09-17T04:11:42.004Z,100.00
2023-09-17T04:14:46.078Z,100.00
2023-09-17T04:17:52.138Z,100.00
2023-09-17T04:20:54.931Z,100.00
2023-09-17T04:23:57.889Z,100.00
2023-09-17T04:27:00.641Z,100.00
2023-09-17T04:30:08.683Z,100.00
2023-09-17T04:33:11.688Z,100.00
2023-09-17T04:36:15.060Z,100.00
2023-09-17T04:39:17.644Z,100.00
2023-09-17T04:42:20.569Z,100.00
2023-09-17T04:45:39.037Z,100.00
2023-09-17T04:48:43.071Z,100.00
2023-09-17T04:51:45.930Z,100.00
2023-09-17T04:54:48.958Z,100.00
2023-09-17T04:57:52.562Z,100.00
2023-09-17T05:00:55.888Z,100.00
2023-09-17T05:03:59.379Z,100.00
2023-09-17T05:07:02.671Z,100.00
2023-09-17T05:10:07.260Z,100.00
2023-09-17T05:13:10.846Z,100.00
2023-09-17T05:16:13.662Z,100.00
2023-09-17T05:19:16.854Z,100.00
2023-09-17T05:22:19.437Z,100.00
2023-09-17T05:25:22.610Z,100.00
2023-09-17T05:28:26.646Z,100.00
2023-09-17T05:31:29.956Z,100.00
2023-09-17T05:34:33.013Z,100.00
2023-09-17T05:37:36.364Z,100.00
2023-09-17T05:40:40.373Z,99.19
2023-09-17T05:43:44.448Z,98.08
2023-09-17T05:46:47.251Z,97.32
2023-09-17T05:49:50.203Z,96.58
2023-09-17T05:52:53.441Z,95.42
2023-09-17T05:55:57.357Z,94.32
2023-09-17T05:59:00.613Z,94.22
2023-09-17T06:02:04.263Z,92.39
2023-09-17T06:05:07.575Z,88.54
2023-09-17T06:08:10.620Z,82.98
2023-09-17T06:11:13.888Z,78.55
2023-09-17T06:14:16.603Z,76.16
2023-09-17T06:17:20.097Z,73.66
2023-09-17T06:20:22.950Z,72.55
2023-09-17T06:23:26.159Z,71.47
2023-09-17T06:26:29.057Z,69.63
2023-09-17T06:29:32.203Z,67.05
2023-09-17T06:32:35.193Z,67.54
2023-09-17T06:35:38.237Z,64.81
2023-09-17T06:38:40.728Z,64.89
2023-09-17T06:41:43.705Z,62.46
2023-09-17T06:44:46.693Z,61.84
2023-09-17T06:47:50.580Z,60.28
2023-09-17T06:50:53.073Z,59.17
2023-09-17T06:53:56.043Z,58.78
2023-09-17T06:56:58.767Z,56.79
2023-09-17T07:00:01.739Z,57.54
2023-09-17T07:03:05.342Z,59.40
2023-09-17T07:06:08.607Z,58.31
2023-09-17T07:09:11.272Z,58.27
2023-09-17T07:12:14.232Z,57.21
2023-09-17T07:15:19.235Z,55.08
2023-09-17T07:18:22.953Z,54.44
2023-09-17T07:21:25.754Z,52.27
2023-09-17T07:24:28.862Z,52.65
2023-09-17T07:27:32.396Z,51.09
2023-09-17T07:30:36.300Z,51.63
2023-09-17T07:33:40.484Z,51.14
2023-09-17T07:36:43.467Z,51.05
2023-09-17T07:39:47.961Z,51.08
2023-09-17T07:42:50.929Z,49.97
2023-09-17T07:45:53.364Z,48.17
2023-09-17T07:48:56.170Z,49.07
2023-09-17T07:51:58.907Z,46.30
2023-09-17T07:55:01.979Z,46.85
2023-09-17T07:58:06.141Z,48.25
2023-09-17T08:01:08.864Z,49.83
2023-09-17T08:04:12.525Z,48.69
2023-09-17T08:07:15.138Z,48.85
2023-09-17T08:10:17.815Z,48.03
2023-09-17T08:13:21.262Z,47.27
2023-09-17T08:16:26.002Z,49.16
2023-09-17T08:19:28.835Z,46.39
2023-09-17T08:22:31.988Z,46.71
2023-09-17T08:25:34.936Z,47.56
2023-09-17T08:28:38.737Z,47.62
2023-09-17T08:31:41.305Z,48.29
2023-09-17T08:34:44.252Z,46.87
2023-09-17T08:37:47.056Z,48.53
2023-09-17T08:40:50.519Z,49.80
2023-09-17T08:43:54.704Z,51.17
2023-09-17T08:47:00.280Z,50.80
2023-09-17T08:50:03.969Z,52.89
2023-09-17T08:53:08.712Z,50.75
2023-09-17T08:56:17.475Z,51.23
2023-09-17T08:59:27.355Z,52.11
2023-09-17T09:02:33.875Z,53.75
2023-09-17T09:05:37.521Z,53.94
2023-09-17T09:08:43.431Z,54.62
2023-09-17T09:11:47.065Z,55.46
2023-09-17T09:14:50.144Z,54.91
2023-09-17T09:17:56.557Z,54.21
2023-09-17T09:21:00.025Z,53.36
2023-09-17T09:24:03.238Z,55.94
2023-09-17T09:27:07.015Z,55.42
2023-09-17T09:30:12.461Z,53.55
2023-09-17T09:33:15.608Z,52.32
2023-09-17T09:36:21.055Z,53.66
2023-09-17T09:39:23.765Z,52.58
2023-09-17T09:42:27.517Z,53.39
2023-09-17T09:45:30.667Z,54.33
2023-09-17T09:48:38.964Z,54.17
2023-09-17T09:51:41.848Z,55.83
2023-09-17T09:54:45.674Z,54.88
2023-09-17T09:57:48.770Z,54.95
2023-09-17T10:00:52.416Z,54.36
2023-09-17T10:03:59.557Z,52.01
2023-09-17T10:07:03.659Z,54.32
2023-09-17T10:10:08.767Z,53.57
2023-09-17T10:13:12.506Z,54.31
2023-09-17T10:16:16.092Z,53.84
2023-09-17T10:19:22.361Z,53.86
2023-09-17T10:22:26.014Z,52.42
2023-09-17T10:25:31.378Z,53.54
2023-09-17T10:28:35.714Z,53.78
2023-09-17T10:31:39.313Z,53.56
2023-09-17T10:34:42.773Z,52.94
2023-09-17T10:37:47.483Z,51.39
2023-09-17T10:40:51.532Z,52.66
2023-09-17T10:43:55.020Z,53.56
2023-09-17T10:47:02.601Z,51.02
2023-09-17T10:50:06.062Z,50.86
2023-09-17T10:53:08.901Z,50.95
2023-09-17T10:56:12.430Z,49.40
2023-09-17T10:59:19.139Z,49.77
2023-09-17T11:02:26.014Z,52.50
2023-09-17T11:05:31.749Z,54.28
2023-09-17T11:08:34.549Z,54.63
2023-09-17T11:11:38.089Z,54.49
2023-09-17T11:14:41.815Z,54.38
2023-09-17T11:17:47.494Z,55.02
2023-09-17T11:21:05.904Z,52.87
2023-09-17T11:24:13.697Z,54.16
2023-09-17T11:27:20.141Z,53.55
2023-09-17T11:30:26.063Z,51.42
2023-09-17T11:33:30.131Z,50.93
2023-09-17T11:36:33.809Z,50.03
2023-09-17T11:39:37.784Z,51.94
2023-09-17T11:42:42.124Z,50.16
2023-09-17T11:45:45.102Z,51.42
2023-09-17T11:48:47.946Z,51.68
2023-09-17T11:51:50.986Z,52.01
2023-09-17T11:54:59.432Z,49.54
2023-09-17T11:58:20.478Z,50.69
2023-09-17T12:01:24.404Z,51.46
2023-09-17T12:04:31.045Z,50.44
2023-09-17T12:07:45.748Z,51.48
2023-09-17T12:11:05.098Z,51.60
2023-09-17T12:14:09.856Z,51.83
2023-09-17T12:17:13.816Z,53.64
2023-09-17T12:20:56.870Z,54.56
2023-09-17T12:24:06.131Z,53.92
2023-09-17T12:27:47.119Z,53.58
2023-09-17T12:30:50.180Z,53.47
2023-09-17T12:33:54.151Z,53.04
2023-09-17T12:36:57.241Z,52.88
2023-09-17T12:39:59.985Z,53.05
2023-09-17T12:43:03.859Z,52.87
2023-09-17T12:46:08.101Z,52.83
2023-09-17T12:49:11.702Z,53.55
2023-09-17T12:52:14.695Z,54.08
2023-09-17T12:55:18.078Z,54.46
2023-09-17T12:58:20.698Z,55.25
2023-09-17T13:01:23.662Z,55.82
2023-09-17T13:04:41.033Z,55.32
2023-09-17T13:07:44.008Z,54.82
2023-09-17T13:10:46.578Z,54.04
2023-09-17T13:13:51.423Z,53.97
2023-09-17T13:16:54.585Z,54.25
2023-09-17T13:20:18.467Z,54.62
2023-09-17T13:23:21.639Z,53.12
2023-09-17T13:26:24.811Z,53.54
2023-09-17T13:29:38.212Z,54.23
2023-09-17T13:32:41.075Z,54.57
2023-09-17T13:35:45.703Z,54.45
2023-09-17T13:38:49.694Z,55.08
2023-09-17T13:41:57.390Z,55.28
2023-09-17T13:45:00.394Z,55.77
2023-09-17T13:48:03.048Z,56.29
2023-09-17T13:51:06.151Z,55.63
2023-09-17T13:54:09.115Z,55.73
2023-09-17T13:57:12.126Z,54.44
2023-09-17T14:00:15.724Z,54.99
2023-09-17T14:03:19.035Z,54.75
2023-09-17T14:06:21.846Z,55.02
2023-09-17T14:09:25.262Z,55.18
2023-09-17T14:12:27.830Z,55.00
2023-09-17T14:15:38.167Z,55.15
2023-09-17T14:18:40.858Z,55.07
2023-09-17T14:21:43.835Z,53.81
2023-09-17T14:24:46.824Z,53.82
2023-09-17T14:27:50.505Z,54.83
2023-09-17T14:30:55.253Z,55.11
2023-09-17T14:33:58.018Z,55.14
2023-09-17T14:37:00.902Z,54.75
2023-09-17T14:40:03.823Z,54.81
2023-09-17T14:43:06.626Z,54.51
2023-09-17T14:46:10.885Z,55.04
2023-09-17T14:49:14.728Z,54.96
2023-09-17T14:52:17.477Z,54.86
2023-09-17T14:55:21.211Z,54.84
2023-09-17T14:58:24.151Z,55.11
2023-09-17T15:04:36.488Z,55.11
2023-09-17T15:07:42.861Z,55.38
2023-09-17T15:10:45.960Z,56.22
2023-09-17T15:13:48.481Z,57.04
2023-09-17T15:16:51.510Z,57.20
2023-09-17T15:19:54.279Z,56.58
2023-09-17T15:22:57.190Z,56.31
2023-09-17T15:25:59.671Z,55.99
2023-09-17T15:29:02.692Z,56.29
2023-09-17T15:32:05.803Z,57.07
2023-09-17T15:35:12.239Z,57.29
2023-09-17T15:38:16.313Z,57.88
2023-09-17T15:41:19.385Z,57.64
2023-09-17T15:44:24.101Z,57.79
2023-09-17T15:47:27.138Z,57.87
2023-09-17T15:50:30.028Z,57.80
2023-09-17T15:53:33.407Z,58.76
2023-09-17T15:56:36.137Z,59.21
2023-09-17T15:59:39.581Z,59.99
2023-09-17T16:02:42.502Z,61.08
2023-09-17T16:05:45.932Z,61.74
2023-09-17T16:08:48.370Z,63.35
2023-09-17T16:11:51.077Z,65.57
2023-09-17T16:14:53.989Z,63.83
2023-09-17T16:17:56.877Z,64.07
2023-09-17T16:20:59.642Z,64.73
2023-09-17T16:24:02.702Z,66.00
2023-09-17T16:27:08.502Z,66.07
2023-09-17T16:30:14.468Z,66.63
2023-09-17T16:33:17.616Z,67.63
2023-09-17T16:36:20.637Z,68.30
2023-09-17T16:39:23.205Z,68.26
2023-09-17T16:42:26.166Z,68.18
2023-09-17T16:45:28.606Z,68.40
2023-09-17T16:48:31.371Z,68.63
2023-09-17T16:51:37.769Z,71.09
2023-09-17T16:54:43.620Z,70.11
2023-09-17T16:57:46.103Z,70.56
2023-09-17T17:00:50.729Z,71.45
2023-09-17T17:03:53.399Z,72.64
2023-09-17T17:06:57.487Z,74.29
2023-09-17T17:10:00.726Z,74.50
2023-09-17T17:13:04.221Z,74.72
2023-09-17T17:16:06.751Z,75.36
2023-09-17T17:19:09.544Z,76.01
2023-09-17T17:22:14.332Z,76.56
2023-09-17T17:25:19.063Z,77.13
2023-09-17T17:28:22.106Z,77.18
2023-09-17T17:31:25.104Z,78.14
2023-09-17T17:34:29.197Z,78.44
2023-09-17T17:37:32.408Z,78.36
2023-09-17T17:40:36.661Z,78.44
2023-09-17T17:43:40.035Z,78.91
2023-09-17T17:46:43.195Z,78.82
2023-09-17T17:49:47.832Z,78.56
2023-09-17T17:52:50.656Z,79.50
2023-09-17T17:55:53.770Z,79.46
2023-09-17T17:58:56.493Z,79.55
2023-09-17T18:01:59.660Z,79.64
2023-09-17T18:05:06.827Z,79.63
2023-09-17T18:08:09.731Z,80.56
2023-09-17T18:11:13.328Z,80.50
2023-09-17T18:14:16.181Z,81.32
2023-09-17T18:17:19.355Z,81.43
2023-09-17T18:20:22.396Z,81.87
2023-09-17T18:23:26.302Z,81.90
2023-09-17T18:26:28.980Z,82.67
2023-09-17T18:29:31.762Z,85.55
2023-09-17T18:32:35.107Z,82.47
2023-09-17T18:35:37.889Z,81.11
2023-09-17T18:38:41.125Z,80.83
2023-09-17T18:41:45.100Z,80.46
2023-09-17T18:44:48.944Z,80.41
2023-09-17T18:47:52.630Z,80.08
2023-09-17T18:50:55.985Z,80.75
2023-09-17T18:54:00.002Z,80.50
2023-09-17T18:57:03.986Z,80.75
2023-09-17T19:00:09.638Z,80.98
2023-09-17T19:03:13.035Z,81.46
2023-09-17T19:06:16.932Z,82.05
2023-09-17T19:09:20.165Z,81.87
2023-09-17T19:12:24.040Z,81.83
2023-09-17T19:15:27.062Z,82.17
2023-09-17T19:18:30.104Z,82.48
2023-09-17T19:21:33.508Z,82.25
2023-09-17T19:24:37.792Z,82.86
2023-09-17T19:27:41.837Z,84.31
2023-09-17T19:30:45.467Z,82.61
2023-09-17T19:33:48.857Z,82.74
2023-09-17T19:36:52.117Z,82.56
2023-09-17T19:39:54.776Z,82.60
2023-09-17T19:42:58.369Z,83.37
2023-09-17T19:46:01.254Z,83.78
2023-09-17T19:49:05.371Z,83.34
2023-09-17T19:52:08.494Z,83.36
2023-09-17T19:55:11.851Z,83.86
2023-09-17T19:58:14.774Z,83.94
2023-09-17T20:01:17.838Z,83.50
2023-09-17T20:04:21.898Z,84.76
2023-09-17T20:07:25.814Z,85.05
2023-09-17T20:10:29.100Z,84.20
2023-09-17T20:13:32.946Z,85.05
2023-09-17T20:16:36.713Z,84.86
2023-09-17T20:19:39.341Z,84.81
2023-09-17T20:22:46.501Z,85.76
2023-09-17T20:25:49.145Z,85.48
2023-09-17T20:28:52.211Z,86.63
2023-09-17T20:31:55.092Z,88.13
2023-09-17T20:34:57.931Z,86.67
2023-09-17T20:38:01.056Z,86.97
2023-09-17T20:41:04.584Z,86.76
2023-09-17T20:44:07.458Z,86.87
2023-09-17T20:47:10.305Z,86.86
2023-09-17T20:50:13.248Z,87.10
2023-09-17T20:53:16.597Z,87.45
2023-09-17T20:56:19.317Z,87.59
2023-09-17T20:59:22.293Z,87.21
2023-09-17T21:02:25.912Z,87.40
2023-09-17T21:05:29.106Z,87.63
2023-09-17T21:08:31.753Z,88.06
2023-09-17T21:11:34.599Z,87.57
2023-09-17T21:14:38.207Z,87.79
2023-09-17T21:17:42.904Z,87.05
2023-09-17T21:20:45.956Z,87.33
2023-09-17T21:23:48.877Z,87.07
2023-09-17T21:26:53.327Z,87.81
2023-09-17T21:29:56.265Z,87.87
2023-09-17T21:32:58.730Z,88.03
2023-09-17T21:36:02.221Z,88.84
2023-09-17T21:39:04.992Z,88.99
2023-09-17T21:42:07.903Z,89.34
2023-09-17T21:45:11.822Z,89.82
2023-09-17T21:48:14.545Z,91.49
2023-09-17T21:51:17.005Z,90.20
2023-09-17T21:54:19.835Z,90.11
2023-09-17T21:57:23.362Z,90.29
2023-09-17T22:00:26.520Z,89.54
2023-09-17T22:03:29.628Z,89.91
2023-09-17T22:06:32.497Z,89.49
2023-09-17T22:09:35.733Z,89.94
2023-09-17T22:12:38.855Z,89.55
2023-09-17T22:15:41.838Z,89.64
2023-09-17T22:18:45.153Z,89.69
2023-09-17T22:21:48.268Z,89.85
2023-09-17T22:24:50.744Z,90.69
2023-09-17T22:27:54.818Z,90.14
2023-09-17T22:30:59.294Z,90.73
2023-09-17T22:34:02.098Z,90.48
2023-09-17T22:37:04.630Z,90.82
2023-09-17T22:40:09.244Z,90.84
2023-09-17T22:43:11.755Z,91.25
2023-09-17T22:46:19.001Z,91.13
2023-09-17T22:49:23.653Z,92.20
2023-09-17T22:52:27.217Z,91.45
2023-09-17T22:55:30.561Z,91.34
2023-09-17T22:58:34.106Z,91.67
2023-09-17T23:01:36.917Z,91.39
2023-09-17T23:04:39.737Z,91.56
2023-09-17T23:07:42.447Z,92.75
2023-09-17T23:10:46.069Z,92.07
2023-09-17T23:13:49.083Z,92.32
2023-09-17T23:16:52.047Z,92.30
2023-09-17T23:19:54.751Z,92.17
2023-09-17T23:22:57.527Z,92.39
2023-09-17T23:26:02.567Z,93.12
2023-09-17T23:29:07.630Z,93.73
2023-09-17T23:32:15.135Z,93.27
2023-09-17T23:35:18.403Z,94.07
2023-09-17T23:38:21.250Z,93.62
2023-09-17T23:41:24.895Z,93.70
2023-09-17T23:44:27.751Z,93.83
2023-09-17T23:47:30.611Z,94.11
2023-09-17T23:50:33.225Z,94.46
2023-09-17T23:53:36.216Z,93.80
2023-09-17T23:56:38.653Z,94.01
2023-09-17T23:59:41.519Z,93.97
